createdAt,value
2022-10-15T00:00:29.907Z,29.30
2022-10-15T00:05:38.069Z,34.92
2022-10-15T00:10:41.585Z,29.85
2022-10-15T00:15:45.051Z,24.85
2022-10-15T00:20:49.956Z,25.10
2022-10-15T00:26:02.488Z,22.02
2022-10-15T00:31:08.160Z,27.65
2022-10-15T00:36:14.935Z,26.10
2022-10-15T00:41:21.347Z,25.25
2022-10-15T00:46:27.778Z,24.73
2022-10-15T00:51:40.879Z,27.95
2022-10-15T00:56:46.683Z,26.35
2022-10-15T01:01:50.194Z,21.23
2022-10-15T01:06:55.350Z,21.70
2022-10-15T01:11:59.256Z,21.63
2022-10-15T01:17:06.800Z,21.17
2022-10-15T01:22:17.415Z,18.00
2022-10-15T01:27:37.205Z,22.30
2022-10-15T01:32:49.575Z,24.83
2022-10-15T01:37:58.795Z,23.75
2022-10-15T01:43:08.354Z,28.75
2022-10-15T01:48:24.935Z,30.23
2022-10-15T01:53:30.273Z,25.52
2022-10-15T01:58:35.581Z,27.88
2022-10-15T02:03:48.303Z,36.28
2022-10-15T02:09:04.375Z,29.33
2022-10-15T02:14:14.328Z,33.47
2022-10-15T02:19:26.126Z,28.60
2022-10-15T02:24:36.501Z,36.63
2022-10-15T02:29:45.544Z,28.05
2022-10-15T02:34:55.692Z,37.83
2022-10-15T02:39:59.134Z,37.33
2022-10-15T02:45:02.974Z,30.63
2022-10-15T02:50:08.335Z,29.20
2022-10-15T02:55:12.045Z,37.63
2022-10-15T03:00:16.530Z,37.25
2022-10-15T03:05:21.779Z,42.88
2022-10-15T03:10:25.667Z,36.60
2022-10-15T03:15:29.325Z,45.78
2022-10-15T03:20:34.203Z,39.45
2022-10-15T03:25:38.580Z,38.72
2022-10-15T03:30:43.253Z,41.13
2022-10-15T03:35:48.526Z,39.95
2022-10-15T03:40:52.848Z,43.28
2022-10-15T03:46:06.568Z,48.97
2022-10-15T03:51:18.560Z,41.65
2022-10-15T03:56:29.771Z,36.70
2022-10-15T04:01:49.365Z,33.53
2022-10-15T04:06:55.101Z,36.40
2022-10-15T04:11:59.809Z,31.60
2022-10-15T04:17:03.638Z,35.30
2022-10-15T04:22:08.690Z,42.90
2022-10-15T04:27:19.318Z,33.67
2022-10-15T04:32:23.333Z,39.50
2022-10-15T04:37:28.380Z,37.42
2022-10-15T04:42:32.249Z,33.35
2022-10-15T04:47:35.841Z,37.60
2022-10-15T04:52:46.379Z,33.63
2022-10-15T04:57:50.241Z,35.88
2022-10-15T05:03:00.853Z,30.42
2022-10-15T05:08:19.702Z,44.72
2022-10-15T05:13:43.009Z,45.60
2022-10-15T05:18:48.599Z,42.70
2022-10-15T05:23:53.627Z,43.47
2022-10-15T05:29:17.021Z,43.50
2022-10-15T05:34:20.520Z,40.95
2022-10-15T05:39:36.658Z,41.58
2022-10-15T05:44:40.304Z,44.28
2022-10-15T05:49:43.812Z,51.08
2022-10-15T05:54:53.868Z,47.85
2022-10-15T05:59:57.355Z,67.30
2022-10-15T06:05:00.945Z,77.38
2022-10-15T06:10:06.442Z,76.28
2022-10-15T06:15:12.842Z,70.63
2022-10-15T06:20:16.400Z,81.95
2022-10-15T06:25:21.211Z,80.78
2022-10-15T06:30:24.660Z,74.28
2022-10-15T06:35:30.329Z,76.82
2022-10-15T06:40:35.300Z,79.22
2022-10-15T06:45:40.554Z,79.05
2022-10-15T06:50:48.999Z,57.05
2022-10-15T06:55:57.678Z,80.25
2022-10-15T07:01:01.990Z,70.90
2022-10-15T07:06:06.913Z,80.05
2022-10-15T07:11:11.910Z,72.20
2022-10-15T07:16:15.546Z,72.53
2022-10-15T07:21:19.062Z,66.38
2022-10-15T07:26:23.927Z,74.07
2022-10-15T07:31:27.911Z,86.35
2022-10-15T07:36:31.388Z,82.90
2022-10-15T07:41:36.174Z,78.93
2022-10-15T07:46:39.762Z,86.80
2022-10-15T07:51:43.379Z,84.32
2022-10-15T07:56:48.207Z,93.60
2022-10-15T08:01:52.406Z,87.10
2022-10-15T08:06:56.110Z,76.20
2022-10-15T08:12:01.292Z,79.30
2022-10-15T08:17:06.194Z,76.32
2022-10-15T08:22:10.002Z,71.75
2022-10-15T08:27:14.822Z,68.15
2022-10-15T08:32:18.734Z,67.53
2022-10-15T08:37:22.700Z,75.43
2022-10-15T08:42:35.057Z,64.78
2022-10-15T08:47:42.599Z,56.08
2022-10-15T08:52:48.313Z,54.40
2022-10-15T08:57:58.519Z,45.30
2022-10-15T09:03:06.562Z,42.43
2022-10-15T09:08:21.948Z,43.28
2022-10-15T09:13:31.316Z,44.10
2022-10-15T09:18:36.961Z,42.40
2022-10-15T09:23:41.603Z,41.25
2022-10-15T09:28:53.442Z,34.08
2022-10-15T09:34:06.096Z,36.53
2022-10-15T09:39:32.015Z,28.98
2022-10-15T09:44:40.651Z,29.48
2022-10-15T09:49:44.624Z,29.63
2022-10-15T09:55:00.477Z,25.65
2022-10-15T10:00:08.819Z,24.15
2022-10-15T10:05:21.999Z,26.48
2022-10-15T10:10:28.553Z,22.83
2022-10-15T10:15:35.749Z,24.52
2022-10-15T10:20:54.196Z,26.00
2022-10-15T10:25:59.713Z,25.25
2022-10-15T10:31:09.996Z,22.23
2022-10-15T10:36:22.244Z,24.27
2022-10-15T10:41:49.683Z,25.17
2022-10-15T10:47:10.868Z,29.50
2022-10-15T10:57:36.116Z,26.50
2022-10-15T11:02:43.951Z,32.00
2022-10-15T11:07:53.305Z,28.48
2022-10-15T11:18:32.790Z,24.08
2022-10-15T11:23:52.859Z,22.23
2022-10-15T11:29:06.435Z,24.67
2022-10-15T11:34:30.088Z,20.60
2022-10-15T11:39:55.918Z,29.88
2022-10-15T11:45:09.127Z,20.92
2022-10-15T11:50:23.178Z,18.20
2022-10-15T11:55:34.310Z,22.42
2022-10-15T12:00:50.433Z,15.02
2022-10-15T12:06:01.143Z,18.53
2022-10-15T12:11:17.617Z,13.00
2022-10-15T12:16:28.938Z,15.98
2022-10-15T12:21:38.085Z,13.00
2022-10-15T12:26:41.549Z,11.35
2022-10-15T12:31:48.048Z,12.20
2022-10-15T12:37:01.464Z,16.98
2022-10-15T12:42:05.268Z,13.27
2022-10-15T12:47:12.204Z,15.90
2022-10-15T12:52:55.033Z,14.20
2022-10-15T12:58:34.895Z,13.50
2022-10-15T13:03:42.676Z,14.32
2022-10-15T13:08:48.902Z,14.07
2022-10-15T13:13:59.314Z,16.48
2022-10-15T13:19:04.102Z,16.63
2022-10-15T13:24:12.390Z,16.20
2022-10-15T13:29:21.857Z,18.08
2022-10-15T13:34:29.259Z,13.45
2022-10-15T13:39:36.589Z,11.88
2022-10-15T13:44:41.939Z,11.50
2022-10-15T13:49:45.632Z,11.52
2022-10-15T13:54:49.310Z,9.32
2022-10-15T13:59:54.664Z,12.23
2022-10-15T14:05:16.693Z,10.98
2022-10-15T14:10:20.242Z,11.77
2022-10-15T14:15:49.865Z,21.95
2022-10-15T14:20:54.019Z,12.50
2022-10-15T14:25:59.546Z,12.15
2022-10-15T14:31:05.520Z,10.05
2022-10-15T14:36:13.112Z,8.30
2022-10-15T14:41:25.937Z,8.02
2022-10-15T14:46:37.675Z,10.50
2022-10-15T14:51:41.226Z,16.23
2022-10-15T14:56:44.832Z,9.85
2022-10-15T15:02:01.862Z,6.93
2022-10-15T15:07:22.196Z,7.10
2022-10-15T15:12:28.053Z,14.70
2022-10-15T15:17:33.357Z,6.05
2022-10-15T15:22:38.278Z,5.43
2022-10-15T15:27:41.894Z,5.90
2022-10-15T15:32:47.005Z,6.20
2022-10-15T15:37:50.627Z,4.63
2022-10-15T15:42:54.242Z,5.13
2022-10-15T15:48:03.602Z,5.85
2022-10-15T15:53:07.310Z,4.93
2022-10-15T15:58:10.915Z,6.05
2022-10-15T16:03:16.259Z,6.00
2022-10-15T16:08:19.730Z,7.40
2022-10-15T16:13:23.700Z,5.57
2022-10-15T16:18:28.605Z,10.95
2022-10-15T16:23:32.029Z,7.05
2022-10-15T16:28:35.646Z,6.38
2022-10-15T16:33:41.394Z,6.35
2022-10-15T16:38:46.588Z,6.95
2022-10-15T16:43:50.923Z,6.60
2022-10-15T16:48:57.178Z,4.25
2022-10-15T16:54:00.891Z,6.05
2022-10-15T16:59:04.570Z,3.03
2022-10-15T17:04:09.484Z,11.52
2022-10-15T17:09:13.200Z,10.27
2022-10-15T17:14:17.824Z,9.27
2022-10-15T17:19:27.795Z,8.27
2022-10-15T17:24:34.099Z,6.15
2022-10-15T17:29:38.280Z,7.40
2022-10-15T17:34:43.248Z,8.82
2022-10-15T17:39:46.970Z,6.13
2022-10-15T17:44:50.637Z,4.88
2022-10-15T17:49:55.561Z,6.20
2022-10-15T17:54:59.140Z,7.60
2022-10-15T18:00:02.705Z,9.98
2022-10-15T18:05:17.479Z,7.25
2022-10-15T18:10:21.177Z,11.90
2022-10-15T18:15:27.951Z,12.43
2022-10-15T18:20:35.028Z,9.63
2022-10-15T18:25:38.892Z,11.27
2022-10-15T18:30:43.616Z,17.23
2022-10-15T18:35:53.037Z,11.15
2022-10-15T18:41:01.896Z,9.32
2022-10-15T18:46:09.523Z,7.55
2022-10-15T18:51:14.882Z,8.35
2022-10-15T18:56:19.004Z,6.55
2022-10-15T19:01:27.638Z,8.15
2022-10-15T19:06:35.690Z,8.57
2022-10-15T19:11:41.193Z,7.97
2022-10-15T19:17:10.643Z,12.32
2022-10-15T19:22:24.915Z,10.90
2022-10-15T19:27:28.866Z,7.25
2022-10-15T19:32:32.575Z,9.50
2022-10-15T19:37:37.497Z,11.80
2022-10-15T19:42:42.510Z,7.72
2022-10-15T19:47:47.160Z,18.08
2022-10-15T19:52:55.688Z,11.15
2022-10-15T19:58:18.225Z,16.02
2022-10-15T20:03:25.744Z,7.38
2022-10-15T20:08:32.414Z,11.48
2022-10-15T20:13:37.129Z,9.02
2022-10-15T20:18:41.803Z,8.85
2022-10-15T20:23:49.016Z,11.82
2022-10-15T20:28:53.570Z,13.20
2022-10-15T20:33:57.322Z,9.43
2022-10-15T20:39:02.968Z,9.00
2022-10-15T20:44:07.027Z,14.18
2022-10-15T20:49:16.386Z,7.30
2022-10-15T20:54:21.463Z,12.27
2022-10-15T20:59:27.890Z,8.85
2022-10-15T21:04:33.813Z,15.35
2022-10-15T21:09:38.630Z,12.73
2022-10-15T21:14:42.117Z,14.50
2022-10-15T21:19:50.262Z,9.57
2022-10-15T21:24:57.498Z,10.93
2022-10-15T21:30:00.970Z,14.48
2022-10-15T21:35:04.739Z,8.35
2022-10-15T21:40:11.484Z,9.43
2022-10-15T21:45:14.974Z,7.45
2022-10-15T21:50:18.850Z,9.60
2022-10-15T21:55:25.969Z,12.18
2022-10-15T22:00:30.620Z,13.13
2022-10-15T22:05:34.068Z,11.27
2022-10-15T22:10:38.861Z,7.35
2022-10-15T22:15:42.409Z,6.60
2022-10-15T22:20:46.928Z,13.27
2022-10-15T22:25:59.559Z,7.13
2022-10-15T22:31:04.763Z,10.57
2022-10-15T22:36:14.087Z,13.90
2022-10-15T22:41:19.039Z,10.82
2022-10-15T22:46:22.577Z,7.13
2022-10-15T22:51:26.030Z,10.15
2022-10-15T22:56:31.374Z,11.60
2022-10-15T23:01:35.907Z,9.85
2022-10-15T23:06:39.515Z,11.15
2022-10-15T23:11:45.223Z,9.05
2022-10-15T23:16:49.154Z,10.40
2022-10-15T23:21:55.420Z,11.93
2022-10-15T23:27:00.705Z,13.13
2022-10-15T23:32:04.317Z,10.85
2022-10-15T23:37:07.787Z,9.20
2022-10-15T23:42:12.609Z,7.18
2022-10-15T23:47:16.076Z,7.95
2022-10-15T23:52:19.656Z,10.32
2022-10-15T23:57:24.877Z,10.85
